Time;durP1;ratioP1;P1;durP2;ratioP2;P2;SDS_P1;SDS_P2;PMS_P1;PMS_P2;Temp;Humidity;BMP_temperature;BMP_pressure;BME280_temperature;BME280_humidity;BME280_pressure;Samples;Min_cycle;Max_cycle;Signal;HPM_P1;HPM_P2
2022/01/08 00:01:20;;;;;;;0.30;0.30;;;;;;;0.94;78.26;101160.53;5040540;28;20030;-77
2022/01/08 00:03:45;;;;;;;0.30;0.30;;;;;;;0.93;78.45;101161.31;5037857;28;20033;-75
2022/01/08 00:06:12;;;;;;;0.30;0.30;;;;;;;0.95;78.75;101164.91;5032122;28;20032;-76
2022/01/08 00:08:38;;;;;;;0.27;0.27;;;;;;;1.06;77.98;101159.63;5040505;28;20025;-76
2022/01/08 00:11:06;;;;;;;0.30;0.30;;;;;;;1.07;77.69;101166.59;5040765;28;20290;-76
2022/01/08 00:13:31;;;;;;;0.27;0.27;;;;;;;1.08;77.83;101165.78;5038756;28;20028;-77
2022/01/08 00:15:57;;;;;;;0.30;0.30;;;;;;;1.16;77.36;101174.97;5040764;28;20275;-76
2022/01/08 00:18:23;;;;;;;0.27;0.27;;;;;;;1.22;76.07;101166.78;5040235;28;20096;-74
2022/01/08 00:20:49;;;;;;;0.30;0.30;;;;;;;1.21;77.08;101172.72;5035233;28;20025;-75
2022/01/08 00:23:15;;;;;;;0.30;0.30;;;;;;;1.17;77.43;101175.91;5020716;28;20285;-74
2022/01/08 00:25:41;;;;;;;0.30;0.30;;;;;;;1.13;77.62;101174.78;5020252;28;20029;-74
2022/01/08 00:28:07;;;;;;;0.30;0.30;;;;;;;1.09;77.61;101183.97;5019933;28;20303;-75
2022/01/08 00:30:33;;;;;;;0.30;0.30;;;;;;;1.08;77.26;101182.16;5019488;28;20293;-74
2022/01/08 00:32:59;;;;;;;0.37;0.37;;;;;;;1.13;76.92;101187.66;5018482;28;20034;-74
2022/01/08 00:35:26;;;;;;;0.30;0.30;;;;;;;1.24;76.25;101180.69;5020604;28;20541;-75
2022/01/08 00:37:52;;;;;;;0.30;0.30;;;;;;;1.28;76.24;101174.97;5020509;28;20114;-74
2022/01/08 00:40:18;;;;;;;0.30;0.30;;;;;;;1.30;75.92;101182.81;5020678;28;20312;-76
2022/01/08 00:42:44;;;;;;;0.30;0.30;;;;;;;1.29;76.18;101179.34;5019471;28;20698;-75
2022/01/08 00:45:09;;;;;;;0.20;0.20;;;;;;;1.29;76.17;101174.16;5019872;28;20273;-75
2022/01/08 00:47:35;;;;;;;0.20;0.20;;;;;;;1.31;75.29;101172.59;5018994;28;20297;-75
2022/01/08 00:50:03;;;;;;;0.20;0.20;;;;;;;1.42;74.57;101162.16;5019469;28;20398;-75
2022/01/08 00:52:28;;;;;;;0.30;0.30;;;;;;;1.48;74.83;101154.81;5031671;28;20013;-73
2022/01/08 00:54:54;;;;;;;0.40;0.40;;;;;;;1.45;75.82;101162.34;5039115;28;20268;-74
2022/01/08 00:57:19;;;;;;;0.23;0.23;;;;;;;1.41;75.30;101168.06;5039791;28;20048;-75
2022/01/08 00:59:44;;;;;;;0.30;0.30;;;;;;;1.40;74.93;101166.28;5039927;28;20029;-76
2022/01/08 01:02:10;;;;;;;0.20;0.20;;;;;;;1.42;74.71;101173.34;5039609;28;20388;-75
2022/01/08 01:04:35;;;;;;;0.30;0.30;;;;;;;1.39;75.56;101173.16;5039413;28;20052;-75
2022/01/08 01:07:01;;;;;;;0.30;0.30;;;;;;;1.36;76.10;101172.91;5040141;28;20101;-75
2022/01/08 01:09:27;;;;;;;0.40;0.40;;;;;;;1.28;75.80;101174.97;5024600;28;20021;-75
2022/01/08 01:11:56;;;;;;;0.30;0.30;;;;;;;1.30;76.08;101180.25;5002546;28;20366;-75
2022/01/08 01:14:22;;;;;;;0.30;0.30;;;;;;;1.29;76.36;101188.75;5019701;28;20117;-76
2022/01/08 01:16:48;;;;;;;0.40;0.40;;;;;;;1.25;76.76;101172.19;5002179;28;20410;-75
2022/01/08 01:19:13;;;;;;;0.20;0.20;;;;;;;1.20;76.76;101181.25;5019657;28;20026;-75
2022/01/08 01:21:39;;;;;;;0.20;0.20;;;;;;;1.13;77.52;101164.47;5019278;28;20104;-74
2022/01/08 01:24:10;;;;;;;0.30;0.30;;;;;;;1.08;77.70;101177.00;5018282;28;20073;-75
2022/01/08 01:26:38;;;;;;;0.30;0.30;;;;;;;1.05;77.98;101183.66;5019598;28;20113;-76
2022/01/08 01:29:33;;;;;;;0.20;0.20;;;;;;;1.01;78.50;101177.38;5019494;28;20382;-75
2022/01/08 01:43:24;;;;;;;0.20;0.20;;;;;;;0.82;79.14;101183.75;5039246;28;20299;-76
2022/01/08 01:48:33;;;;;;;0.20;0.20;;;;;;;0.85;79.56;101195.09;5038450;28;20283;-75
2022/01/08 01:50:59;;;;;;;0.20;0.20;;;;;;;0.86;79.65;101202.91;5039336;28;20267;-75
2022/01/08 01:53:24;;;;;;;0.20;0.20;;;;;;;0.88;79.33;101201.34;5038111;28;20104;-76
2022/01/08 01:55:50;;;;;;;0.20;0.20;;;;;;;0.90;79.66;101207.53;5038649;28;20049;-76
2022/01/08 01:58:16;;;;;;;0.20;0.20;;;;;;;0.94;79.85;101212.09;5038760;28;20068;-76
2022/01/08 02:00:43;;;;;;;0.23;0.23;;;;;;;0.96;79.93;101210.53;5038587;28;20276;-75
2022/01/08 02:03:08;;;;;;;0.20;0.20;;;;;;;1.01;79.83;101221.22;5038239;28;20272;-77
2022/01/08 02:05:34;;;;;;;0.30;0.30;;;;;;;1.04;79.73;101208.53;5038860;28;20272;-75
2022/01/08 02:07:59;;;;;;;0.30;0.30;;;;;;;1.07;79.75;101215.59;5029242;28;20081;-76
2022/01/08 02:10:25;;;;;;;0.30;0.30;;;;;;;1.13;79.64;101220.31;5018780;28;20029;-76
2022/01/08 02:12:50;;;;;;;0.20;0.20;;;;;;;1.19;79.67;101216.47;5018616;28;20060;-75
2022/01/08 02:15:16;;;;;;;0.20;0.20;;;;;;;1.27;79.73;101205.81;5019529;28;20026;-75
2022/01/08 02:17:41;;;;;;;0.30;0.30;;;;;;;1.32;79.84;101207.91;5018650;28;20022;-75
2022/01/08 02:20:07;;;;;;;0.20;0.20;;;;;;;1.31;80.01;101210.41;5019596;28;20046;-75
2022/01/08 02:22:33;;;;;;;0.30;0.30;;;;;;;1.33;79.94;101214.00;5019004;28;20034;-76
2022/01/08 02:24:58;;;;;;;0.30;0.30;;;;;;;1.36;79.71;101207.38;5031264;28;20719;-75
2022/01/08 02:27:24;;;;;;;0.20;0.20;;;;;;;1.41;79.83;101210.28;5036002;28;20018;-76
2022/01/08 02:29:50;;;;;;;0.27;0.27;;;;;;;1.44;79.36;101207.91;5034946;28;20025;-75
2022/01/08 02:32:19;;;;;;;0.30;0.30;;;;;;;1.48;79.32;101203.84;5037394;28;20308;-77
2022/01/08 02:34:46;;;;;;;0.40;0.40;;;;;;;1.46;79.47;101205.44;5038054;28;20267;-76
2022/01/08 02:37:12;;;;;;;0.40;0.40;;;;;;;1.42;79.49;101201.75;5038254;28;20271;-75
2022/01/08 02:39:40;;;;;;;0.20;0.20;;;;;;;1.37;79.41;101195.38;5038083;28;20280;-74
2022/01/08 02:42:07;;;;;;;0.30;0.30;;;;;;;1.33;79.80;101203.69;5036381;28;20671;-75
2022/01/08 02:44:33;;;;;;;0.20;0.20;;;;;;;1.28;80.00;101202.44;5017951;28;20283;-75
2022/01/08 02:46:59;;;;;;;0.30;0.30;;;;;;;1.27;80.07;101203.22;5018205;28;20285;-74
2022/01/08 02:49:24;;;;;;;0.30;0.30;;;;;;;1.27;79.67;101208.38;5039790;28;20045;-74
2022/01/08 02:51:51;;;;;;;0.40;0.40;;;;;;;1.22;79.83;101197.75;5044176;28;20096;-76
2022/01/08 02:54:16;;;;;;;0.30;0.30;;;;;;;1.21;79.93;101198.53;5044675;28;20013;-75
2022/01/08 02:56:44;;;;;;;0.30;0.30;;;;;;;1.18;80.12;101201.78;5036756;28;20285;-75
2022/01/08 02:59:10;;;;;;;0.27;0.27;;;;;;;1.17;80.10;101201.69;5025743;28;20026;-75
2022/01/08 03:01:36;;;;;;;0.20;0.20;;;;;;;1.16;80.07;101199.88;5025869;28;20350;-75
2022/01/08 03:04:03;;;;;;;0.20;0.20;;;;;;;1.12;79.67;101193.59;5044330;28;20031;-74
2022/01/08 03:06:28;;;;;;;0.20;0.20;;;;;;;1.12;79.50;101195.28;5042942;28;20041;-75
2022/01/08 03:08:53;;;;;;;0.30;0.30;;;;;;;1.08;79.96;101191.59;5043496;28;20306;-75
2022/01/08 03:11:19;;;;;;;0.27;0.27;;;;;;;1.05;79.86;101192.25;5040838;28;20166;-75
2022/01/08 03:13:44;;;;;;;0.20;0.20;;;;;;;1.01;79.83;101192.84;5043789;28;20025;-74
2022/01/08 03:16:09;;;;;;;0.20;0.20;;;;;;;1.04;79.88;101189.56;5040894;28;20018;-75
2022/01/08 03:18:37;;;;;;;0.40;0.40;;;;;;;1.05;80.05;101187.09;5035170;28;20092;-75
2022/01/08 03:21:13;;;;;;;0.23;0.23;;;;;;;1.06;80.16;101190.59;5037667;28;20226;-77
2022/01/08 03:23:46;;;;;;;0.30;0.30;;;;;;;1.07;79.94;101195.84;5037414;28;20279;-74
2022/01/08 03:26:12;;;;;;;0.30;0.30;;;;;;;1.07;80.39;101190.69;5038086;28;20025;-75
2022/01/08 03:28:37;;;;;;;0.20;0.20;;;;;;;1.11;80.08;101196.09;5037194;28;20282;-76
2022/01/08 03:31:03;;;;;;;0.30;0.30;;;;;;;1.18;79.64;101185.41;5036803;28;20035;-75
2022/01/08 03:33:28;;;;;;;0.30;0.30;;;;;;;1.23;79.44;101192.69;5034980;28;20061;-76
2022/01/08 03:35:54;;;;;;;0.30;0.30;;;;;;;1.26;78.97;101186.88;5038377;28;20028;-74
2022/01/08 03:38:19;;;;;;;0.30;0.30;;;;;;;1.27;78.44;101182.59;5037841;28;20036;-75
2022/01/08 03:40:44;;;;;;;0.30;0.30;;;;;;;1.26;78.75;101178.22;5036822;28;20303;-76
2022/01/08 03:43:10;;;;;;;0.20;0.20;;;;;;;1.27;78.54;101183.50;5037120;28;20028;-76
2022/01/08 03:45:35;;;;;;;0.27;0.27;;;;;;;1.27;78.85;101192.91;5020098;28;20291;-76
2022/01/08 03:50:35;;;;;;;0.30;0.30;;;;;;;1.27;78.72;101190.31;5017326;28;20112;-75
2022/01/08 03:53:01;;;;;;;0.30;0.30;;;;;;;1.23;78.57;101192.69;5017456;28;20356;-75
2022/01/08 03:55:26;;;;;;;0.30;0.30;;;;;;;1.19;79.15;101192.38;5017470;28;20277;-76
2022/01/08 03:57:51;;;;;;;0.20;0.20;;;;;;;1.16;79.55;101195.63;5016861;28;20018;-76
2022/01/08 04:00:17;;;;;;;0.20;0.20;;;;;;;1.13;79.67;101192.84;5018236;28;20053;-75
2022/01/08 04:02:42;;;;;;;0.30;0.30;;;;;;;1.13;79.94;101192.84;5017617;28;20030;-77
2022/01/08 04:05:08;;;;;;;0.20;0.20;;;;;;;1.12;80.17;101191.00;5021745;28;20056;-77
2022/01/08 04:07:33;;;;;;;0.30;0.30;;;;;;;1.11;80.46;101188.34;5038696;28;20040;-76
2022/01/08 04:09:58;;;;;;;0.30;0.30;;;;;;;1.08;80.45;101189.88;5040531;28;20029;-74
2022/01/08 04:12:40;;;;;;;0.20;0.20;;;;;;;1.05;80.72;101192.25;5041426;28;20037;-74
2022/01/08 04:15:19;;;;;;;0.30;0.30;;;;;;;1.04;80.89;101190.47;5042037;28;20033;-75
2022/01/08 04:17:44;;;;;;;0.20;0.20;;;;;;;1.01;80.81;101191.94;5042349;28;20519;-77
2022/01/08 04:20:10;;;;;;;0.20;0.20;;;;;;;0.97;81.20;101198.53;5041848;28;20287;-75
2022/01/08 04:22:35;;;;;;;0.30;0.30;;;;;;;0.94;81.14;101195.75;5029643;28;20018;-75
2022/01/08 04:25:01;;;;;;;0.20;0.20;;;;;;;0.91;81.21;101199.00;5021004;28;20442;-76
2022/01/08 04:27:26;;;;;;;0.30;0.30;;;;;;;0.88;81.05;101201.34;5020535;28;20062;-75
2022/01/08 04:29:51;;;;;;;0.30;0.30;;;;;;;0.88;81.33;101205.63;5019967;28;20401;-75
2022/01/08 04:32:17;;;;;;;0.10;0.10;;;;;;;0.86;81.49;101207.19;5019673;28;20400;-75
2022/01/08 04:34:42;;;;;;;0.30;0.30;;;;;;;0.85;81.23;101208.84;5020413;28;20025;-75
2022/01/08 04:37:07;;;;;;;0.20;0.20;;;;;;;0.83;81.42;101213.00;5020223;28;20312;-75
2022/01/08 04:39:33;;;;;;;0.27;0.27;;;;;;;0.82;81.31;101211.22;5020552;28;20022;-75
2022/01/08 04:41:58;;;;;;;0.10;0.10;;;;;;;0.81;81.63;101219.75;5020564;28;20113;-75
2022/01/08 04:44:23;;;;;;;0.20;0.20;;;;;;;0.81;81.53;101219.75;5020946;28;20340;-76
2022/01/08 04:46:49;;;;;;;0.20;0.20;;;;;;;0.81;81.32;101220.63;5020339;28;20294;-76
2022/01/08 04:49:14;;;;;;;0.20;0.20;;;;;;;0.82;81.41;101226.69;5020580;28;20052;-75
2022/01/08 04:51:39;;;;;;;0.30;0.30;;;;;;;0.83;81.47;101228.47;5019919;28;20697;-74
2022/01/08 04:54:05;;;;;;;0.20;0.20;;;;;;;0.85;81.57;101229.50;5020073;28;20022;-75
2022/01/08 04:56:30;;;;;;;0.20;0.20;;;;;;;0.84;81.25;101217.38;5037843;28;20096;-74
2022/01/08 04:58:56;;;;;;;0.30;0.30;;;;;;;0.83;81.09;101213.00;5039820;28;20328;-75
2022/01/08 05:01:21;;;;;;;0.20;0.20;;;;;;;0.82;81.25;101219.84;5040110;28;20026;-74
2022/01/08 05:03:46;;;;;;;0.30;0.30;;;;;;;0.81;81.21;101220.63;5038525;28;20033;-75
2022/01/08 05:06:12;;;;;;;0.20;0.20;;;;;;;0.80;81.23;101212.75;5039729;28;20326;-76
2022/01/08 05:08:37;;;;;;;0.20;0.20;;;;;;;0.78;81.14;101215.25;5039782;28;20081;-76
2022/01/08 05:11:03;;;;;;;0.20;0.20;;;;;;;0.80;81.23;101218.84;5037653;28;20025;-76
2022/01/08 05:13:28;;;;;;;0.20;0.20;;;;;;;0.80;81.26;101217.94;5019542;28;20053;-76
2022/01/08 05:15:54;;;;;;;0.30;0.30;;;;;;;0.77;81.41;101217.72;5020230;28;20084;-75
2022/01/08 05:18:19;;;;;;;0.30;0.30;;;;;;;0.74;81.26;101213.22;5019392;28;20292;-74
2022/01/08 05:20:54;;;;;;;0.20;0.20;;;;;;;0.71;81.32;101212.09;5019565;28;20018;-76
2022/01/08 05:23:20;;;;;;;0.30;0.30;;;;;;;0.67;81.36;101217.03;5018480;28;20036;-77
2022/01/08 05:25:45;;;;;;;0.37;0.37;;;;;;;0.69;81.33;101230.03;5019371;28;20311;-77
2022/01/08 05:28:10;;;;;;;0.30;0.30;;;;;;;0.70;81.41;101236.09;5019907;28;20021;-76
2022/01/08 05:30:36;;;;;;;0.27;0.27;;;;;;;0.72;81.55;101237.09;5019766;28;20456;-75
2022/01/08 05:33:01;;;;;;;0.20;0.20;;;;;;;0.73;81.20;101242.38;5018349;28;20400;-77
2022/01/08 05:35:28;;;;;;;0.30;0.30;;;;;;;0.77;81.51;101240.91;5018894;28;20040;-76
2022/01/08 05:37:53;;;;;;;0.27;0.27;;;;;;;0.81;81.21;101242.94;5019653;28;20288;-75
2022/01/08 05:40:19;;;;;;;0.30;0.30;;;;;;;0.85;81.20;101246.66;5019311;28;20359;-76
2022/01/08 05:42:44;;;;;;;0.30;0.30;;;;;;;0.87;81.51;101245.97;5029909;28;20046;-75
2022/01/08 05:45:10;;;;;;;0.30;0.30;;;;;;;0.89;81.30;101246.09;5039232;28;20025;-74
2022/01/08 05:47:35;;;;;;;0.27;0.27;;;;;;;0.89;81.30;101248.66;5037529;28;20040;-74
2022/01/08 05:50:02;;;;;;;0.30;0.30;;;;;;;0.92;81.33;101246.31;5038962;28;20021;-75
2022/01/08 05:52:27;;;;;;;0.40;0.40;;;;;;;0.92;81.09;101244.63;5038453;28;20279;-75
2022/01/08 05:54:53;;;;;;;0.23;0.23;;;;;;;0.91;81.26;101247.09;5038160;28;20359;-75
2022/01/08 05:57:18;;;;;;;0.30;0.30;;;;;;;0.88;81.31;101240.00;5038618;28;20277;-74
2022/01/08 05:59:44;;;;;;;0.30;0.30;;;;;;;0.86;81.15;101244.16;5021405;28;20037;-74
2022/01/08 06:02:09;;;;;;;0.30;0.30;;;;;;;0.84;81.15;101229.38;5017818;28;20029;-75
2022/01/08 06:04:36;;;;;;;0.33;0.33;;;;;;;0.79;81.23;101232.50;5017657;28;20105;-75
2022/01/08 06:07:04;;;;;;;0.30;0.30;;;;;;;0.75;81.73;101220.16;5036900;28;20017;-75
2022/01/08 06:09:30;;;;;;;0.30;0.30;;;;;;;0.73;81.71;101224.31;5037375;28;20267;-74
2022/01/08 06:11:56;;;;;;;0.20;0.20;;;;;;;0.70;82.04;101218.03;5038259;28;20663;-74
2022/01/08 06:14:21;;;;;;;0.40;0.40;;;;;;;0.64;81.89;101216.78;5037326;28;20038;-75
2022/01/08 06:16:48;;;;;;;0.30;0.30;;;;;;;0.61;82.16;101226.00;5017814;28;20044;-76
2022/01/08 06:19:14;;;;;;;0.30;0.30;;;;;;;0.55;82.34;101223.84;5017848;28;20381;-75
2022/01/08 06:21:40;;;;;;;0.30;0.30;;;;;;;0.52;81.99;101223.63;5018200;28;20643;-74
2022/01/08 06:24:06;;;;;;;0.23;0.23;;;;;;;0.49;82.11;101208.81;5018341;28;20276;-75
2022/01/08 06:26:31;;;;;;;0.27;0.27;;;;;;;0.45;82.42;101217.13;5018110;28;20026;-75
2022/01/08 06:28:57;;;;;;;0.20;0.20;;;;;;;0.41;82.42;101209.91;5018213;28;20021;-74
2022/01/08 06:31:23;;;;;;;0.30;0.30;;;;;;;0.38;82.54;101213.16;5024226;28;20045;-75
2022/01/08 06:33:49;;;;;;;0.30;0.30;;;;;;;0.34;82.70;101206.00;5035889;28;20355;-75
2022/01/08 06:36:17;;;;;;;0.20;0.20;;;;;;;0.29;82.69;101204.72;5038162;28;20032;-74
2022/01/08 06:38:43;;;;;;;0.20;0.20;;;;;;;0.25;82.94;101207.88;5037898;28;20027;-75
2022/01/08 06:41:08;;;;;;;0.23;0.23;;;;;;;0.20;82.54;101206.63;5037327;28;20375;-74
2022/01/08 06:43:33;;;;;;;0.20;0.20;;;;;;;0.17;83.10;101215.00;5037534;28;20077;-75
2022/01/08 06:45:59;;;;;;;0.30;0.30;;;;;;;0.15;83.31;101200.22;5037990;28;20052;-75
2022/01/08 06:48:24;;;;;;;0.20;0.20;;;;;;;0.12;83.15;101209.50;5027630;28;20045;-75
2022/01/08 06:50:49;;;;;;;0.20;0.20;;;;;;;0.12;83.42;101206.00;5017564;28;20046;-75
2022/01/08 06:53:15;;;;;;;0.20;0.20;;;;;;;0.12;83.48;101204.34;5017892;28;20412;-74
2022/01/08 06:55:40;;;;;;;0.20;0.20;;;;;;;0.12;83.71;101193.13;5017695;28;20299;-74
2022/01/08 06:58:05;;;;;;;0.20;0.20;;;;;;;0.12;83.78;101196.63;5017944;28;20045;-75
2022/01/08 07:00:31;;;;;;;0.30;0.30;;;;;;;0.15;83.74;101193.41;5017868;28;20403;-74
2022/01/08 07:02:56;;;;;;;0.20;0.20;;;;;;;0.20;83.87;101183.44;5017326;28;20114;-74
2022/01/08 07:05:23;;;;;;;0.30;0.30;;;;;;;0.23;83.50;101189.72;5022818;28;20029;-73
2022/01/08 07:07:48;;;;;;;0.30;0.30;;;;;;;0.26;83.75;101191.63;5036200;28;20052;-74
2022/01/08 07:10:13;;;;;;;0.30;0.30;;;;;;;0.27;84.20;101191.72;5036946;28;20566;-74
2022/01/08 07:12:39;;;;;;;0.20;0.20;;;;;;;0.31;83.86;101190.28;5036829;28;20299;-75
2022/01/08 07:15:05;;;;;;;0.20;0.20;;;;;;;0.33;83.75;101188.75;5036749;28;20091;-74
2022/01/08 07:17:30;;;;;;;0.20;0.20;;;;;;;0.35;83.72;101186.25;5028591;28;20096;-75
2022/01/08 07:19:56;;;;;;;0.20;0.20;;;;;;;0.37;83.99;101175.28;5018260;28;20284;-74
2022/01/08 07:22:21;;;;;;;0.20;0.20;;;;;;;0.40;83.79;101178.13;5037029;28;20068;-74
2022/01/08 07:24:47;;;;;;;0.30;0.30;;;;;;;0.43;83.90;101168.81;5036970;28;20029;-74
2022/01/08 07:27:13;;;;;;;0.20;0.20;;;;;;;0.48;83.83;101180.34;5036044;28;20036;-75
2022/01/08 07:29:38;;;;;;;0.20;0.20;;;;;;;0.51;83.85;101178.91;5036653;28;20376;-77
2022/01/08 07:32:04;;;;;;;0.20;0.20;;;;;;;0.54;83.83;101176.56;5036167;28;20275;-75
2022/01/08 07:34:29;;;;;;;0.30;0.30;;;;;;;0.59;83.85;101176.91;5036647;28;20376;-75
2022/01/08 07:36:55;;;;;;;0.20;0.20;;;;;;;0.59;83.83;101166.59;5037227;28;20029;-74
2022/01/08 07:39:20;;;;;;;0.20;0.20;;;;;;;0.65;83.94;101166.13;5034286;28;20087;-76
2022/01/08 07:41:45;;;;;;;0.20;0.20;;;;;;;0.68;83.98;101164.69;5029436;28;20141;-75
2022/01/08 07:44:11;;;;;;;0.27;0.27;;;;;;;0.70;83.97;101162.22;5038667;28;20030;-75
2022/01/08 07:46:36;;;;;;;0.30;0.30;;;;;;;0.72;84.11;101165.81;5040763;28;20395;-75
2022/01/08 07:49:01;;;;;;;0.30;0.30;;;;;;;0.75;84.12;101165.16;5044069;28;20061;-76
2022/01/08 07:51:27;;;;;;;0.20;0.20;;;;;;;0.81;84.02;101160.44;5033006;28;20048;-76
2022/01/08 07:53:52;;;;;;;0.20;0.20;;;;;;;0.82;83.93;101168.28;5040742;28;20029;-75
2022/01/08 07:56:17;;;;;;;0.20;0.20;;;;;;;0.88;83.68;101162.66;5039710;28;20104;-75
2022/01/08 07:58:43;;;;;;;0.20;0.20;;;;;;;0.91;83.62;101159.41;5038389;28;20025;-75
2022/01/08 08:01:08;;;;;;;0.17;0.17;;;;;;;0.90;83.72;101150.78;5033724;28;20033;-76
2022/01/08 08:03:34;;;;;;;0.20;0.20;;;;;;;0.91;83.87;101150.00;5028883;28;20093;-75
2022/01/08 08:05:59;;;;;;;0.20;0.20;;;;;;;0.94;83.83;101152.78;5034842;28;20060;-75
2022/01/08 08:08:25;;;;;;;0.17;0.17;;;;;;;0.95;83.94;101141.69;5034136;28;20029;-76
2022/01/08 08:10:50;;;;;;;0.23;0.23;;;;;;;1.00;84.11;101144.59;5031814;28;20041;-75
2022/01/08 08:13:16;;;;;;;0.20;0.20;;;;;;;1.07;84.00;101141.66;5028319;28;20045;-74
2022/01/08 08:15:42;;;;;;;0.20;0.20;;;;;;;1.15;83.86;101147.41;5029690;28;20093;-74
2022/01/08 08:18:07;;;;;;;0.20;0.20;;;;;;;1.16;83.87;101130.22;5028945;28;20363;-76
2022/01/08 08:20:33;;;;;;;0.20;0.20;;;;;;;1.21;84.44;101134.03;5024614;28;20415;-76
2022/01/08 08:23:00;;;;;;;0.20;0.20;;;;;;;1.22;83.82;101131.56;5028728;28;20112;-77
2022/01/08 08:25:26;;;;;;;0.30;0.30;;;;;;;1.29;83.77;101132.88;5011927;28;20284;-76
2022/01/08 08:27:51;;;;;;;0.10;0.10;;;;;;;1.35;83.56;101130.75;5033869;28;20292;-76
2022/01/08 08:30:18;;;;;;;0.20;0.20;;;;;;;1.44;83.56;101125.31;5047606;28;20081;-76
2022/01/08 08:32:44;;;;;;;0.47;0.47;;;;;;;1.49;83.27;101123.97;5023568;28;20041;-76
2022/01/08 08:35:10;;;;;;;0.30;0.30;;;;;;;1.54;83.37;101119.13;5034358;28;20272;-78
2022/01/08 08:37:37;;;;;;;0.20;0.20;;;;;;;1.55;83.42;101104.53;5031083;28;20272;-73
2022/01/08 08:40:04;;;;;;;0.10;0.10;;;;;;;1.58;83.47;101105.66;5036562;28;20282;-74
2022/01/08 08:42:30;;;;;;;0.20;0.20;;;;;;;1.63;83.83;101100.78;5035063;28;20272;-76
2022/01/08 08:44:55;;;;;;;0.20;0.20;;;;;;;1.64;83.50;101102.59;5034083;28;20288;-75
2022/01/08 08:47:20;;;;;;;0.20;0.20;;;;;;;1.67;83.51;101107.06;5024428;28;20041;-75
2022/01/08 08:49:46;;;;;;;0.20;0.20;;;;;;;1.69;83.24;101106.38;5031411;28;20037;-77
2022/01/08 08:52:11;;;;;;;0.20;0.20;;;;;;;1.74;83.28;101097.25;5024091;28;20284;-79
2022/01/08 08:54:39;;;;;;;0.20;0.20;;;;;;;1.77;82.92;101088.81;5040522;28;20025;-75
2022/01/08 08:57:05;;;;;;;0.10;0.10;;;;;;;1.75;83.27;101093.88;5041412;28;20017;-77
2022/01/08 08:59:31;;;;;;;0.20;0.20;;;;;;;1.74;83.60;101094.66;5039445;28;20287;-75
2022/01/08 09:01:56;;;;;;;0.17;0.17;;;;;;;1.77;83.50;101094.91;5037942;28;20704;-76
2022/01/08 09:04:23;;;;;;;0.20;0.20;;;;;;;1.81;83.66;101089.94;5034583;28;20113;-76
2022/01/08 09:06:48;;;;;;;0.20;0.20;;;;;;;1.81;83.80;101083.06;5022827;28;20080;-78
2022/01/08 09:09:14;;;;;;;0.20;0.20;;;;;;;1.82;83.98;101063.31;5038319;28;20283;-76
2022/01/08 09:11:40;;;;;;;0.30;0.30;;;;;;;1.84;83.67;101061.72;5044079;28;20033;-76
2022/01/08 09:14:06;;;;;;;0.20;0.20;;;;;;;1.84;83.96;101059.13;5042685;28;20052;-75
2022/01/08 09:16:33;;;;;;;0.20;0.20;;;;;;;1.94;83.69;101055.50;5036965;28;20276;-78
2022/01/08 09:18:59;;;;;;;0.20;0.20;;;;;;;1.99;83.38;101041.19;5041769;28;20056;-77
2022/01/08 09:21:25;;;;;;;0.30;0.30;;;;;;;1.98;83.51;101037.72;5041834;28;20272;-72
2022/01/08 09:23:50;;;;;;;0.20;0.20;;;;;;;1.96;83.84;101039.31;5041131;28;20024;-77
2022/01/08 09:26:16;;;;;;;0.27;0.27;;;;;;;1.99;83.84;101034.31;5042633;28;20033;-82
2022/01/08 09:28:41;;;;;;;0.10;0.10;;;;;;;2.01;83.88;101025.03;5041754;28;20336;-77
2022/01/08 09:31:07;;;;;;;0.20;0.20;;;;;;;2.07;84.11;101032.28;5040391;28;20106;-76
2022/01/08 09:33:33;;;;;;;0.20;0.20;;;;;;;2.11;83.35;101023.91;5039382;28;20096;-78
2022/01/08 09:35:59;;;;;;;0.10;0.10;;;;;;;2.13;83.45;101013.69;5038407;28;20053;-80
2022/01/08 09:38:25;;;;;;;0.30;0.30;;;;;;;2.17;83.12;101019.16;5023239;28;20025;-77
2022/01/08 09:40:51;;;;;;;0.20;0.20;;;;;;;2.21;83.05;101012.50;5041569;28;20278;-77
2022/01/08 09:43:17;;;;;;;0.20;0.20;;;;;;;2.23;82.87;101010.03;5037139;28;20109;-77
2022/01/08 09:45:44;;;;;;;0.30;0.30;;;;;;;2.28;82.64;100995.69;5035916;28;20286;-78
2022/01/08 09:48:09;;;;;;;0.30;0.30;;;;;;;2.33;82.43;101000.38;5037550;28;20311;-78
2022/01/08 09:50:34;;;;;;;0.40;0.40;;;;;;;2.29;82.58;100997.47;5038011;28;20330;-79
2022/01/08 09:53:01;;;;;;;0.20;0.20;;;;;;;2.32;82.64;100987.34;5037588;28;20040;-78
2022/01/08 09:55:28;;;;;;;0.20;0.20;;;;;;;2.29;82.72;100984.53;5021070;28;20126;-80
2022/01/08 09:57:54;;;;;;;0.23;0.23;;;;;;;2.28;82.99;100983.66;5037904;28;20276;-76
2022/01/08 10:00:29;;;;;;;0.23;0.23;;;;;;;2.31;83.13;100975.22;5037864;28;20602;-77
2022/01/08 10:03:12;;;;;;;0.20;0.20;;;;;;;2.39;83.55;100965.34;5037464;28;20574;-77
2022/01/08 10:05:46;;;;;;;0.23;0.23;;;;;;;2.43;82.65;100957.03;5018623;28;20295;-78
2022/01/08 10:08:15;;;;;;;0.10;0.10;;;;;;;2.46;82.23;100958.09;5024690;28;20312;-78
2022/01/08 10:10:54;;;;;;;0.20;0.20;;;;;;;2.52;82.31;100943.75;5017703;28;20296;-80
2022/01/08 10:13:25;;;;;;;0.20;0.20;;;;;;;2.52;81.90;100938.59;5037491;28;20287;-79
2022/01/08 10:18:37;;;;;;;0.20;0.20;;;;;;;2.57;81.96;100913.94;5037832;28;20279;-78
2022/01/08 10:21:21;;;;;;;0.30;0.30;;;;;;;2.60;81.71;100898.59;5037372;28;20369;-78
2022/01/08 10:23:57;;;;;;;0.27;0.27;;;;;;;2.65;81.60;100883.34;5036727;28;20033;-78
2022/01/08 10:26:31;;;;;;;0.30;0.30;;;;;;;2.70;81.33;100887.13;5020605;28;20454;-78
2022/01/08 10:29:17;;;;;;;0.23;0.23;;;;;;;2.77;81.22;100873.78;5037587;28;20095;-78
2022/01/08 10:31:54;;;;;;;0.20;0.20;;;;;;;2.82;80.83;100877.53;5036163;28;20403;-76
2022/01/08 10:34:25;;;;;;;0.40;0.40;;;;;;;2.84;80.69;100873.34;5020111;28;20033;-78
2022/01/08 10:37:05;;;;;;;0.27;0.27;;;;;;;2.85;80.33;100875.13;5032102;28;20028;-78
2022/01/08 10:39:35;;;;;;;0.30;0.30;;;;;;;2.96;79.79;100864.53;5036403;28;20027;-78
2022/01/08 10:42:16;;;;;;;0.33;0.33;;;;;;;2.91;79.43;100847.84;5019954;28;20021;-79
2022/01/08 10:44:47;;;;;;;0.40;0.40;;;;;;;2.98;79.42;100843.13;5036811;28;20410;-76
2022/01/08 10:47:17;;;;;;;0.30;0.30;;;;;;;3.06;78.85;100832.34;5035446;28;20033;-77
2022/01/08 10:49:47;;;;;;;0.40;0.40;;;;;;;3.14;77.53;100816.47;5037220;28;20021;-80
2022/01/08 10:52:22;;;;;;;0.40;0.40;;;;;;;3.21;77.03;100819.38;5023762;28;20317;-76
2022/01/08 10:54:55;;;;;;;0.30;0.30;;;;;;;3.25;76.42;100816.19;5020358;28;20029;-79
2022/01/08 10:57:21;;;;;;;0.40;0.40;;;;;;;3.23;76.47;100800.56;5036745;28;20079;-79
2022/01/08 10:59:55;;;;;;;0.30;0.30;;;;;;;3.27;76.63;100793.88;5036234;28;20033;-79
2022/01/08 11:02:20;;;;;;;0.30;0.30;;;;;;;3.36;75.84;100780.56;5036460;28;20381;-74
2022/01/08 11:04:47;;;;;;;0.40;0.40;;;;;;;3.41;75.93;100772.25;5037404;28;20098;-82
2022/01/08 11:07:16;;;;;;;0.50;0.50;;;;;;;3.41;76.33;100768.75;5036596;28;20418;-80
2022/01/08 11:09:43;;;;;;;0.30;0.30;;;;;;;3.40;76.68;100754.94;5035749;28;20029;-77
2022/01/08 11:12:14;;;;;;;0.40;0.40;;;;;;;3.47;76.15;100750.97;5035081;28;20041;-78
2022/01/08 11:17:23;;;;;;;0.30;0.30;;;;;;;3.49;76.07;100736.41;5031443;28;20046;-80
2022/01/08 11:19:52;;;;;;;0.30;0.30;;;;;;;3.54;75.97;100728.91;5017321;28;20162;-79
2022/01/08 11:22:23;;;;;;;0.37;0.37;;;;;;;3.56;75.45;100716.94;5019313;28;20335;-77
2022/01/08 11:24:55;;;;;;;0.40;0.40;;;;;;;3.66;75.10;100714.03;5036408;28;20351;-78
2022/01/08 11:27:27;;;;;;;0.30;0.30;;;;;;;3.65;75.80;100714.84;5022503;28;20440;-77
2022/01/08 11:29:58;;;;;;;0.83;0.70;;;;;;;3.66;75.66;100695.00;4999798;28;20065;-78
2022/01/08 11:32:25;;;;;;;0.30;0.30;;;;;;;3.69;75.40;100685.72;5017284;28;20014;-71
2022/01/08 11:34:52;;;;;;;0.50;0.50;;;;;;;3.70;75.51;100687.53;5031212;28;20040;-80
2022/01/08 11:37:21;;;;;;;0.47;0.47;;;;;;;3.72;75.70;100690.16;5019669;28;20014;-77
2022/01/08 11:39:46;;;;;;;0.33;0.33;;;;;;;3.66;75.78;100680.38;5025346;28;20049;-82
2022/01/08 11:42:13;;;;;;;0.37;0.37;;;;;;;3.66;76.42;100675.19;5017595;28;20034;-77
2022/01/08 11:44:39;;;;;;;0.30;0.30;;;;;;;3.55;76.53;100658.22;5018760;28;20368;-81
2022/01/08 11:47:05;;;;;;;0.23;0.23;;;;;;;3.65;76.09;100646.63;5035112;28;20022;-77
2022/01/08 11:49:31;;;;;;;0.37;0.37;;;;;;;3.63;76.96;100632.72;5021714;28;20025;-79
2022/01/08 11:52:16;;;;;;;0.40;0.40;;;;;;;3.67;77.13;100629.47;5040265;28;20060;-80
2022/01/08 11:54:42;;;;;;;0.30;0.30;;;;;;;3.72;76.82;100609.88;5037687;28;20017;-80